Aérodrome :







RETROUVEZ-NOUS SUR...

 
LOGIN :

S'inscrire | Disclaimer

   EN    FR    IT 

 









Légende :    VFR   VFR Marginal   IFR   IFR Intensif   IFR Très Intensif
Visi : 
Plafond : 
>= 8 km
>= 3000ft
5 à 8 km
1000 à 3000 ft
1500m à 5 km
500 à 1000 ft
800 à 1500m
200 à 500 ft
< 800m
< 200 ft
Symboles :   Orages  Brouillard  Fortes neiges  Fortes précipitations  Vent > 20 kt






- Altitude de l'aérodrome : 335 ft
- Code IATA : BTV


KBTV - Burlington International

DERNIER METAR :
  • 261354Z 23007KT 10SM FEW005 OVC042 02/01 A2968 RMK AO2 SLP053 VCFG T00170006

METARs EXPIRÉS :
  • 261332Z 23004KT 10SM SCT005 OVC044 02/01 A2968 RMK AO2 VCFG T00170006
  • 261317Z 19005KT 10SM BKN005 OVC044 02/01 A2968 RMK AO2 VCFG T00170006
  • 261259Z 18006KT 10SM R15/5500VP6000FT OVC003 02/01 A2968 RMK AO2 VCFG VIS N-NE 2 T00170006
  • 261238Z 21005KT 3/4SM R15/4000V6000FT BR OVC003 01/01 A2968 RMK AO2 VCFG T00110006
  • 261154Z 19007KT 7SM OVC003 02/01 A2968 RMK AO2 SLP054 VCFG 4/004 60000 70048 T00170006 10017 20006 56005
  • 261139Z 18004KT 1 1/2SM R15/5000VP6000FT BR OVC003 01/01 A2968 RMK AO2 T00110006

TAF KBTV
Valide du 26 à 14h jusqu'au 27 à 12h UTC


261340Z 2614/2712 23005KT 6SM BR SCT005 OVC040
FM261700 19006KT P6SM VCSH OVC040
FM262200 20007KT 5SM -SHSN BR OVC025



MET'MAP, la Météo Aéronautique d'un coup d'oeil ! - Copyright ORBIFLY Décembre 2007 - Disclaimer

ORBIFLY MET'MAP TEAM :

Programmation & Développement : Alexandra Zaïnal
Sur une idée originale de : Baudouin d'Aumeries
Assistance à la programmation : Marc-Olivier Méhu
Soutien technique & logistique : Manuel Goepfert

Contact : metmap@orbifly.com




SOURCES & CREDITS :

   NOAA